Time;durP1;ratioP1;P1;durP2;ratioP2;P2;SDS_P1;SDS_P2;PMS_P1;PMS_P2;Temp;Humidity;BMP_temperature;BMP_pressure;BME280_temperature;BME280_humidity;BME280_pressure;Samples;Min_cycle;Max_cycle;Signal;HPM_P1;HPM_P2
2021/08/07 00:01:07;;;;;;;;;;;;;;;20.72;59.75;99803.41;5161544;27;770;-57
2021/08/07 00:03:32;;;;;;;;;;;;;;;21.25;58.52;99800.53;5160908;27;827;-54
2021/08/07 00:05:58;;;;;;;;;;;;;;;21.33;58.00;99797.75;5160367;27;1121;-57
2021/08/07 00:08:23;;;;;;;;;;;;;;;21.48;57.73;99813.00;5161224;27;1909;-43
2021/08/07 00:10:49;;;;;;;;;;;;;;;21.08;58.82;99802.19;5161048;27;905;-44
2021/08/07 00:13:14;;;;;;;;;;;;;;;20.77;60.12;99805.16;5161254;27;804;-56
2021/08/07 00:15:40;;;;;;;;;;;;;;;20.61;59.44;99804.81;5161211;27;779;-43
2021/08/07 00:18:05;;;;;;;;;;;;;;;20.56;59.74;99803.03;5160744;27;739;-56
2021/08/07 00:20:30;;;;;;;;;;;;;;;21.15;59.10;99807.22;5160130;27;933;-43
2021/08/07 00:22:56;;;;;;;;;;;;;;;21.41;58.03;99811.91;5161313;27;786;-56
2021/08/07 00:25:21;;;;;;;;;;;;;;;21.74;57.04;99812.16;5160921;27;1169;-43
2021/08/07 00:27:47;;;;;;;;;;;;;;;21.73;57.00;99812.44;5160209;27;1909;-57
2021/08/07 00:30:12;;;;;;;;;;;;;;;21.10;58.85;99811.00;5160779;27;828;-57
2021/08/07 00:32:38;;;;;;;;;;;;;;;20.75;60.16;99816.56;5142497;27;781;-57
2021/08/07 00:35:08;;;;;;;;;;;;;;;20.40;59.57;99821.19;5134212;27;1024;-43
2021/08/07 00:37:35;;;;;;;;;;;;;;;20.75;59.68;99824.84;5121820;27;1055;-42
2021/08/07 00:40:05;;;;;;;;;;;;;;;21.12;59.09;99818.94;5139873;27;841;-56
2021/08/07 00:42:31;;;;;;;;;;;;;;;21.11;58.82;99801.56;5120560;27;1515;-43
2021/08/07 00:44:57;;;;;;;;;;;;;;;21.33;58.04;99819.06;5121802;27;1140;-52
2021/08/07 00:47:27;;;;;;;;;;;;;;;21.42;57.82;99811.56;5121211;27;1120;-43
2021/08/07 00:49:53;;;;;;;;;;;;;;;20.65;60.19;99812.13;5120542;27;1990;-55
2021/08/07 00:52:20;;;;;;;;;;;;;;;20.60;60.27;99804.00;5121226;27;1307;-43
2021/08/07 00:54:48;;;;;;;;;;;;;;;20.28;59.36;99808.84;5121397;27;834;-49
2021/08/07 00:57:14;;;;;;;;;;;;;;;20.71;60.16;99799.00;5121056;27;1342;-45
2021/08/07 00:59:41;;;;;;;;;;;;;;;20.96;59.20;99799.31;5121456;27;1347;-43
2021/08/07 01:02:13;;;;;;;;;;;;;;;21.08;58.61;99799.44;5121043;27;1289;-45
2021/08/07 01:05:03;;;;;;;;;;;;;;;21.39;57.88;99803.13;5138554;27;997;-54
2021/08/07 01:07:35;;;;;;;;;;;;;;;21.03;58.71;99802.38;5119582;27;1687;-47
2021/08/07 01:10:30;;;;;;;;;;;;;;;20.70;59.73;99805.66;5139272;27;732;-56
2021/08/07 01:13:29;;;;;;;;;;;;;;;20.21;59.24;99804.94;5110628;27;1188;-43
2021/08/07 01:15:59;;;;;;;;;;;;;;;20.65;60.19;99816.81;5118870;27;1954;-46
2021/08/07 01:18:28;;;;;;;;;;;;;;;20.92;58.99;99812.16;5120654;27;1169;-49
2021/08/07 01:20:55;;;;;;;;;;;;;;;21.01;58.61;99810.19;5120130;27;1278;-56
2021/08/07 01:23:36;;;;;;;;;;;;;;;20.95;58.79;99819.78;5121030;27;842;-51
2021/08/07 01:26:11;;;;;;;;;;;;;;;20.89;58.97;99832.97;5119464;27;1230;-55
2021/08/07 01:28:41;;;;;;;;;;;;;;;20.57;60.10;99834.22;5138613;27;1905;-52
2021/08/07 01:31:08;;;;;;;;;;;;;;;20.40;59.42;99835.00;5120434;27;1232;-43
2021/08/07 01:33:34;;;;;;;;;;;;;;;20.45;59.99;99843.94;5120097;27;1212;-42
2021/08/07 01:36:05;;;;;;;;;;;;;;;20.71;59.42;99826.63;5135093;27;1959;-56
2021/08/07 01:38:35;;;;;;;;;;;;;;;21.02;59.13;99833.91;5141238;27;1235;-43
2021/08/07 01:41:01;;;;;;;;;;;;;;;20.84;58.53;99833.91;5140830;27;1313;-43
2021/08/07 01:43:28;;;;;;;;;;;;;;;20.97;56.47;99831.31;5140430;27;1527;-47
2021/08/07 01:45:58;;;;;;;;;;;;;;;20.72;55.24;99827.44;5141215;27;1176;-55
2021/08/07 01:48:33;;;;;;;;;;;;;;;20.78;53.29;99824.19;5139920;27;1902;-43
2021/08/07 01:51:13;;;;;;;;;;;;;;;20.61;52.45;99816.69;5140689;27;1255;-43
2021/08/07 01:53:43;;;;;;;;;;;;;;;20.30;52.32;99805.75;5140812;27;1116;-57
2021/08/07 01:56:16;;;;;;;;;;;;;;;20.68;51.79;99807.94;5158618;27;763;-46
2021/08/07 01:58:48;;;;;;;;;;;;;;;20.54;54.14;99788.75;5124431;27;1293;-56
2021/08/07 02:01:16;;;;;;;;;;;;;;;20.72;55.90;99784.06;5140446;27;1100;-57
2021/08/07 02:03:44;;;;;;;;;;;;;;;21.02;56.98;99775.88;5123575;27;1229;-55
2021/08/07 02:06:09;;;;;;;;;;;;;;;21.17;57.66;99761.53;5136370;27;1225;-42
2021/08/07 02:08:37;;;;;;;;;;;;;;;20.74;59.88;99759.66;5119690;27;1966;-57
2021/08/07 02:11:05;;;;;;;;;;;;;;;20.64;60.58;99776.56;5119915;27;1114;-43
2021/08/07 02:13:31;;;;;;;;;;;;;;;20.43;59.00;99781.91;5137666;27;920;-42
2021/08/07 02:16:06;;;;;;;;;;;;;;;20.94;61.31;99791.31;5120673;27;1295;-56
2021/08/07 02:18:32;;;;;;;;;;;;;;;21.25;60.46;99803.31;5119200;27;1128;-43
2021/08/07 02:20:59;;;;;;;;;;;;;;;21.41;60.03;99806.38;5136496;27;1393;-47
2021/08/07 02:23:28;;;;;;;;;;;;;;;20.85;62.11;99805.16;5136351;27;1256;-46
2021/08/07 02:25:55;;;;;;;;;;;;;;;20.87;62.08;99817.84;5136107;27;1218;-56
2021/08/07 02:28:28;;;;;;;;;;;;;;;20.63;59.70;99819.91;5136518;27;2280;-54
2021/08/07 02:30:56;;;;;;;;;;;;;;;21.27;60.76;99817.63;5119892;27;1117;-43
2021/08/07 02:33:24;;;;;;;;;;;;;;;21.82;60.34;99819.56;5102232;27;1197;-44
2021/08/07 02:35:51;;;;;;;;;;;;;;;22.14;59.16;99819.25;5119182;28;1427;-44
2021/08/07 02:38:19;;;;;;;;;;;;;;;21.16;62.19;99823.50;5119098;27;1298;-45
2021/08/07 02:40:44;;;;;;;;;;;;;;;20.99;63.08;99829.06;5102372;27;1205;-56
2021/08/07 02:43:14;;;;;;;;;;;;;;;20.74;61.18;99836.22;5136443;27;1024;-55
2021/08/07 02:45:40;;;;;;;;;;;;;;;20.50;59.75;99832.75;5102792;27;1189;-43
2021/08/07 02:48:06;;;;;;;;;;;;;;;21.43;60.86;99840.03;5137491;27;1918;-57
2021/08/07 02:50:34;;;;;;;;;;;;;;;21.87;61.03;99837.97;5125188;27;1275;-54
2021/08/07 02:53:02;;;;;;;;;;;;;;;21.99;60.90;99853.84;5119276;28;1204;-52
2021/08/07 02:55:28;;;;;;;;;;;;;;;21.61;61.64;99868.50;5101697;28;1140;-44
2021/08/07 02:58:04;;;;;;;;;;;;;;;21.17;63.08;99872.13;5103839;28;1162;-57
2021/08/07 03:00:33;;;;;;;;;;;;;;;20.75;61.73;99871.81;5102946;28;1247;-47
2021/08/07 03:02:58;;;;;;;;;;;;;;;20.57;59.71;99881.19;5136870;28;874;-54
2021/08/07 03:05:25;;;;;;;;;;;;;;;21.33;61.54;99888.19;5120856;27;1121;-56
2021/08/07 03:07:56;;;;;;;;;;;;;;;21.86;60.89;99886.16;5139681;27;1909;-43
2021/08/07 03:10:21;;;;;;;;;;;;;;;22.12;59.70;99890.75;5139431;27;1094;-56
2021/08/07 03:12:49;;;;;;;;;;;;;;;21.45;61.92;99882.00;5158179;27;779;-57
2021/08/07 03:15:15;;;;;;;;;;;;;;;21.01;63.55;99887.56;5139783;27;1392;-56
2021/08/07 03:17:41;;;;;;;;;;;;;;;21.02;60.41;99886.44;5138973;27;1240;-48
2021/08/07 03:20:07;;;;;;;;;;;;;;;20.58;59.92;99891.91;5139288;27;1116;-55
2021/08/07 03:22:39;;;;;;;;;;;;;;;21.23;61.86;99900.41;5138642;27;1094;-44
2021/08/07 03:25:07;;;;;;;;;;;;;;;21.83;61.76;99897.88;5138443;27;1225;-46
2021/08/07 03:27:33;;;;;;;;;;;;;;;22.06;60.77;99901.19;5139666;27;1132;-55
2021/08/07 03:30:01;;;;;;;;;;;;;;;21.29;63.05;99914.88;5139426;27;1951;-56
2021/08/07 03:32:27;;;;;;;;;;;;;;;21.12;63.56;99924.00;5161375;27;831;-56
2021/08/07 03:34:53;;;;;;;;;;;;;;;20.82;61.61;99929.34;5137639;27;1350;-55
2021/08/07 03:37:19;;;;;;;;;;;;;;;20.67;60.10;99930.59;5122724;27;1192;-55
2021/08/07 03:39:55;;;;;;;;;;;;;;;20.93;60.96;99925.13;5122130;27;1224;-57
2021/08/07 03:42:22;;;;;;;;;;;;;;;21.68;61.81;99935.19;5122673;27;1076;-46
2021/08/07 03:44:47;;;;;;;;;;;;;;;22.00;61.34;99942.09;5122928;27;1393;-56
2021/08/07 03:47:14;;;;;;;;;;;;;;;21.87;61.33;99952.25;5142379;27;848;-48
2021/08/07 03:49:42;;;;;;;;;;;;;;;21.20;63.69;99962.69;5142725;27;1901;-55
2021/08/07 03:52:08;;;;;;;;;;;;;;;21.06;63.71;99952.94;5143279;27;1243;-57
2021/08/07 03:54:34;;;;;;;;;;;;;;;20.87;60.72;99958.75;5160539;27;835;-51
2021/08/07 03:57:00;;;;;;;;;;;;;;;20.84;59.66;99966.56;5143086;27;1167;-45
2021/08/07 03:59:27;;;;;;;;;;;;;;;21.48;61.93;99953.25;5143060;27;1082;-48
2021/08/07 04:01:54;;;;;;;;;;;;;;;21.55;61.87;99945.31;5142920;27;1259;-57
2021/08/07 04:04:23;;;;;;;;;;;;;;;21.79;61.22;99966.91;5142788;27;1486;-56
2021/08/07 04:06:49;;;;;;;;;;;;;;;21.29;62.71;99956.34;5121984;27;1213;-45
2021/08/07 04:09:21;;;;;;;;;;;;;;;20.98;64.01;99968.38;5121515;27;1918;-57
2021/08/07 04:11:48;;;;;;;;;;;;;;;20.91;61.50;99968.84;5122027;27;1410;-57
2021/08/07 04:14:13;;;;;;;;;;;;;;;20.83;60.28;99967.72;5121423;27;1354;-55
2021/08/07 04:16:39;;;;;;;;;;;;;;;21.60;61.58;99983.03;5121856;27;1157;-55
2021/08/07 04:19:26;;;;;;;;;;;;;;;22.13;60.74;99989.28;5122844;27;1155;-56
2021/08/07 04:21:56;;;;;;;;;;;;;;;21.84;61.16;99997.19;5142576;27;1152;-57
2021/08/07 04:24:25;;;;;;;;;;;;;;;21.40;62.67;99993.59;5142178;27;1219;-57
2021/08/07 04:26:51;;;;;;;;;;;;;;;21.05;62.95;99996.34;5142444;27;1212;-61
2021/08/07 04:29:20;;;;;;;;;;;;;;;20.66;60.61;99996.06;5141867;27;1978;-47
2021/08/07 04:31:48;;;;;;;;;;;;;;;20.50;58.91;99992.13;5142172;27;1156;-59
2021/08/07 04:34:13;;;;;;;;;;;;;;;20.99;59.45;100003.16;5141510;27;1124;-62
2021/08/07 04:36:40;;;;;;;;;;;;;;;21.88;60.43;100012.00;5121555;27;1284;-48
2021/08/07 04:39:07;;;;;;;;;;;;;;;22.02;61.74;100013.75;5121210;27;2055;-57
2021/08/07 04:41:32;;;;;;;;;;;;;;;22.28;60.74;100001.78;5150590;27;1101;-49
2021/08/07 04:43:59;;;;;;;;;;;;;;;21.59;62.29;100028.44;5160960;27;1420;-56
2021/08/07 04:46:26;;;;;;;;;;;;;;;21.13;64.06;100025.16;5141685;27;1144;-57
2021/08/07 04:48:52;;;;;;;;;;;;;;;21.11;62.43;100022.72;5141808;27;1921;-57
2021/08/07 04:51:18;;;;;;;;;;;;;;;21.06;59.44;100024.81;5141896;27;1128;-52
2021/08/07 04:53:44;;;;;;;;;;;;;;;21.20;57.44;100034.56;5141868;27;1140;-54
2021/08/07 04:56:13;;;;;;;;;;;;;;;21.68;60.25;100045.88;5141555;27;1290;-52
2021/08/07 04:58:39;;;;;;;;;;;;;;;21.96;61.59;100045.50;5141783;27;1491;-55
2021/08/07 05:01:04;;;;;;;;;;;;;;;22.21;61.49;100041.88;5158426;27;1070;-58
2021/08/07 05:03:30;;;;;;;;;;;;;;;21.99;60.74;100050.38;5160189;27;755;-47
2021/08/07 05:05:58;;;;;;;;;;;;;;;21.46;63.47;100055.94;5126731;27;1184;-54
2021/08/07 05:08:25;;;;;;;;;;;;;;;21.34;63.06;100051.03;5120470;27;1984;-58
2021/08/07 05:10:53;;;;;;;;;;;;;;;21.23;59.67;100059.97;5120882;27;1069;-57
2021/08/07 05:13:20;;;;;;;;;;;;;;;21.24;56.60;100056.03;5120472;27;2019;-48
2021/08/07 05:15:45;;;;;;;;;;;;;;;21.59;60.42;100059.72;5120380;27;1121;-58
2021/08/07 05:18:12;;;;;;;;;;;;;;;21.88;62.05;100061.81;5139055;27;755;-47
2021/08/07 05:20:37;;;;;;;;;;;;;;;22.09;63.09;100069.44;5120750;27;1101;-58
2021/08/07 05:23:03;;;;;;;;;;;;;;;22.17;62.29;100087.97;5138500;27;811;-53
2021/08/07 05:25:28;;;;;;;;;;;;;;;21.65;63.85;100090.78;5156518;27;1098;-53
2021/08/07 05:27:54;;;;;;;;;;;;;;;21.16;62.85;100113.75;5141411;27;1909;-55
2021/08/07 05:30:21;;;;;;;;;;;;;;;20.44;58.41;100124.00;5140458;27;1207;-53
2021/08/07 05:32:49;;;;;;;;;;;;;;;21.18;56.97;100130.88;5141396;27;1267;-47
2021/08/07 05:35:16;;;;;;;;;;;;;;;21.19;54.04;100126.13;5140576;27;1204;-57
2021/08/07 05:37:41;;;;;;;;;;;;;;;20.87;53.94;100132.84;5152399;27;1283;-47
2021/08/07 05:40:09;;;;;;;;;;;;;;;20.83;53.93;100141.78;5157730;27;1853;-52
2021/08/07 05:42:37;;;;;;;;;;;;;;;20.79;54.75;100132.50;5158261;27;1278;-53
2021/08/07 05:45:02;;;;;;;;;;;;;;;21.09;54.74;100148.56;5157894;27;1104;-57
2021/08/07 05:47:28;;;;;;;;;;;;;;;21.10;55.18;100142.69;5159268;27;770;-55
2021/08/07 05:49:53;;;;;;;;;;;;;;;21.16;55.47;100146.94;5155706;27;1909;-57
2021/08/07 05:52:19;;;;;;;;;;;;;;;21.15;55.78;100150.88;5140225;27;1271;-53
2021/08/07 05:54:44;;;;;;;;;;;;;;;21.13;56.24;100147.59;5158528;27;810;-54
2021/08/07 05:57:10;;;;;;;;;;;;;;;21.30;55.96;100137.72;5140337;27;1195;-50
2021/08/07 05:59:36;;;;;;;;;;;;;;;21.33;55.96;100139.84;5140370;27;1133;-59
2021/08/07 06:02:03;;;;;;;;;;;;;;;21.12;56.64;100143.19;5140606;27;1219;-59
2021/08/07 06:04:29;;;;;;;;;;;;;;;20.67;58.11;100148.81;5139606;27;1286;-48
2021/08/07 06:07:00;;;;;;;;;;;;;;;20.52;58.25;100155.53;5139839;27;1166;-49
2021/08/07 06:09:25;;;;;;;;;;;;;;;20.21;57.86;100156.31;5158775;27;1974;-58
2021/08/07 06:11:52;;;;;;;;;;;;;;;21.09;57.39;100160.41;5140205;27;1306;-57
2021/08/07 06:14:18;;;;;;;;;;;;;;;21.58;57.64;100159.63;5139337;27;1088;-59
2021/08/07 06:16:44;;;;;;;;;;;;;;;21.90;57.94;100158.34;5139823;27;1104;-56
2021/08/07 06:19:10;;;;;;;;;;;;;;;21.22;61.29;100168.94;5139928;27;1427;-55
2021/08/07 06:21:35;;;;;;;;;;;;;;;21.23;62.18;100162.28;5120274;27;1141;-58
2021/08/07 06:24:01;;;;;;;;;;;;;;;21.01;60.79;100162.03;5145611;27;884;-52
2021/08/07 06:26:29;;;;;;;;;;;;;;;21.03;58.14;100168.03;5137486;27;1240;-51
2021/08/07 06:28:55;;;;;;;;;;;;;;;21.58;60.21;100179.00;5139430;27;1910;-59
2021/08/07 06:31:20;;;;;;;;;;;;;;;22.04;62.13;100189.44;5122293;27;927;-47
2021/08/07 06:33:46;;;;;;;;;;;;;;;22.25;62.81;100179.69;5140285;27;1152;-59
2021/08/07 06:36:12;;;;;;;;;;;;;;;21.88;64.05;100193.84;5141124;27;956;-60
2021/08/07 06:38:38;;;;;;;;;;;;;;;21.95;64.18;100188.66;5135251;27;2247;-59
2021/08/07 06:41:04;;;;;;;;;;;;;;;21.56;60.70;100197.84;5139969;27;1116;-58
2021/08/07 06:43:32;;;;;;;;;;;;;;;20.92;57.86;100205.38;5138606;27;873;-58
2021/08/07 06:46:14;;;;;;;;;;;;;;;21.65;57.94;100201.47;5139348;27;803;-56
2021/08/07 06:48:40;;;;;;;;;;;;;;;21.30;58.14;100204.91;5139415;27;1917;-58
2021/08/07 06:51:06;;;;;;;;;;;;;;;20.88;57.14;100192.53;5157654;27;1009;-58
2021/08/07 06:53:32;;;;;;;;;;;;;;;20.96;54.81;100192.56;5139635;27;1295;-48
2021/08/07 06:55:57;;;;;;;;;;;;;;;20.70;54.67;100183.31;5139161;27;867;-59
2021/08/07 06:58:23;;;;;;;;;;;;;;;20.68;55.08;100192.72;5157504;27;767;-46
2021/08/07 07:00:49;;;;;;;;;;;;;;;20.97;54.80;100185.91;5157920;27;736;-56
2021/08/07 07:03:15;;;;;;;;;;;;;;;20.87;55.72;100190.88;5139366;27;893;-56
2021/08/07 07:05:43;;;;;;;;;;;;;;;20.91;56.29;100184.41;5140463;27;1334;-50
2021/08/07 07:08:08;;;;;;;;;;;;;;;20.92;56.44;100182.47;5143301;27;1925;-58
2021/08/07 07:10:37;;;;;;;;;;;;;;;21.02;56.33;100184.94;5144085;27;1171;-56
2021/08/07 07:13:03;;;;;;;;;;;;;;;21.05;56.48;100178.78;5143032;27;833;-57
2021/08/07 07:15:29;;;;;;;;;;;;;;;21.23;55.95;100176.09;5143563;27;1247;-53
2021/08/07 07:17:54;;;;;;;;;;;;;;;20.65;58.03;100181.44;5161946;27;763;-57
2021/08/07 07:20:21;;;;;;;;;;;;;;;20.62;58.43;100188.44;5142608;27;1143;-53
2021/08/07 07:22:47;;;;;;;;;;;;;;;20.15;58.31;100180.47;5143801;27;1183;-60
2021/08/07 07:25:13;;;;;;;;;;;;;;;20.93;57.42;100176.63;5143676;27;1170;-58
2021/08/07 07:27:39;;;;;;;;;;;;;;;20.95;57.53;100192.88;5142714;27;1125;-58
2021/08/07 07:30:05;;;;;;;;;;;;;;;21.30;58.40;100190.25;5143284;27;1902;-55
2021/08/07 07:32:31;;;;;;;;;;;;;;;21.36;59.81;100192.56;5161830;27;755;-58
2021/08/07 07:34:57;;;;;;;;;;;;;;;21.09;61.91;100188.06;5136746;27;1226;-57
2021/08/07 07:37:23;;;;;;;;;;;;;;;21.07;62.17;100198.63;5122487;27;1238;-56
2021/08/07 07:39:48;;;;;;;;;;;;;;;20.77;60.12;100198.31;5140714;27;878;-56
2021/08/07 07:42:14;;;;;;;;;;;;;;;21.25;59.01;100198.69;5122762;27;1252;-55
2021/08/07 07:44:39;;;;;;;;;;;;;;;21.90;61.35;100188.81;5140473;27;830;-55
2021/08/07 07:47:05;;;;;;;;;;;;;;;22.25;62.35;100176.94;5121841;27;903;-57
2021/08/07 07:49:31;;;;;;;;;;;;;;;22.03;63.34;100185.06;5121841;27;1996;-48
2021/08/07 07:51:57;;;;;;;;;;;;;;;21.73;64.79;100192.38;5122287;27;1117;-57
2021/08/07 07:54:24;;;;;;;;;;;;;;;21.65;63.29;100191.19;5122502;27;1183;-57
2021/08/07 07:56:50;;;;;;;;;;;;;;;20.94;58.31;100202.28;5122079;27;1164;-49
2021/08/07 07:59:15;;;;;;;;;;;;;;;21.18;57.15;100199.16;5121660;27;1112;-48
2021/08/07 08:01:41;;;;;;;;;;;;;;;21.34;58.16;100203.13;5140202;27;759;-55
2021/08/07 08:04:07;;;;;;;;;;;;;;;21.54;57.67;100195.41;5140542;27;771;-58
2021/08/07 08:06:32;;;;;;;;;;;;;;;21.40;56.28;100201.03;5139488;27;1134;-54
2021/08/07 08:08:58;;;;;;;;;;;;;;;21.18;55.14;100204.69;5139888;27;1986;-58
2021/08/07 08:11:25;;;;;;;;;;;;;;;20.98;54.72;100206.06;5122488;27;1495;-57
2021/08/07 08:13:50;;;;;;;;;;;;;;;20.85;54.15;100211.34;5121504;27;1378;-47
2021/08/07 08:16:16;;;;;;;;;;;;;;;20.80;53.64;100217.03;5121351;27;1097;-48
2021/08/07 08:18:41;;;;;;;;;;;;;;;20.58;53.85;100217.00;5140287;27;790;-60
2021/08/07 08:21:07;;;;;;;;;;;;;;;20.57;53.40;100226.44;5121138;27;1212;-51
2021/08/07 08:23:34;;;;;;;;;;;;;;;20.50;53.35;100233.19;5104845;27;1333;-55
2021/08/07 08:25:59;;;;;;;;;;;;;;;20.58;52.75;100222.50;5139265;27;1267;-57
2021/08/07 08:28:25;;;;;;;;;;;;;;;20.75;52.36;100241.19;5141750;27;1975;-52
2021/08/07 08:30:50;;;;;;;;;;;;;;;20.60;53.18;100228.56;5142298;27;1145;-58
2021/08/07 08:33:16;;;;;;;;;;;;;;;20.72;54.08;100236.28;5142462;27;1216;-60
2021/08/07 08:35:42;;;;;;;;;;;;;;;20.82;54.65;100236.84;5159685;27;953;-58
2021/08/07 08:38:07;;;;;;;;;;;;;;;20.95;55.28;100223.28;5142168;27;1313;-59
2021/08/07 08:40:33;;;;;;;;;;;;;;;20.97;55.95;100238.41;5142146;27;1125;-57
2021/08/07 08:42:59;;;;;;;;;;;;;;;21.20;55.82;100230.88;5124160;27;1245;-57
2021/08/07 08:45:25;;;;;;;;;;;;;;;21.39;55.63;100254.69;5142135;27;1120;-56
2021/08/07 08:47:51;;;;;;;;;;;;;;;20.88;57.58;100240.31;5141276;27;1909;-47
2021/08/07 08:50:21;;;;;;;;;;;;;;;20.74;58.16;100250.63;5139994;27;1299;-57
2021/08/07 08:52:47;;;;;;;;;;;;;;;20.55;58.16;100242.50;5142118;27;1179;-59
2021/08/07 08:55:13;;;;;;;;;;;;;;;20.42;59.20;100239.47;5124766;27;1260;-58
2021/08/07 08:57:39;;;;;;;;;;;;;;;21.05;57.84;100253.41;5141334;27;1121;-54
2021/08/07 09:00:05;;;;;;;;;;;;;;;21.27;57.04;100248.97;5141574;27;1104;-58
2021/08/07 09:02:32;;;;;;;;;;;;;;;21.34;56.67;100252.09;5142227;27;1354;-61
2021/08/07 09:04:58;;;;;;;;;;;;;;;20.93;58.12;100258.69;5140282;27;930;-59
2021/08/07 09:07:24;;;;;;;;;;;;;;;20.81;58.50;100254.56;5140561;27;1220;-51
2021/08/07 09:09:53;;;;;;;;;;;;;;;20.51;58.00;100259.69;5141403;27;1913;-56
2021/08/07 09:12:34;;;;;;;;;;;;;;;20.76;58.66;100270.47;5140814;27;1196;-58
2021/08/07 09:14:59;;;;;;;;;;;;;;;21.07;58.04;100259.44;5141450;27;1205;-48
2021/08/07 09:17:25;;;;;;;;;;;;;;;21.05;58.23;100260.91;5140726;27;850;-50
2021/08/07 09:19:58;;;;;;;;;;;;;;;21.23;57.86;100268.13;5140865;27;1246;-59
2021/08/07 09:22:31;;;;;;;;;;;;;;;20.81;59.22;100262.84;5141348;27;1291;-49
2021/08/07 09:25:01;;;;;;;;;;;;;;;20.73;59.76;100269.13;5140973;27;1224;-59
2021/08/07 09:27:30;;;;;;;;;;;;;;;20.53;58.13;100273.19;5139509;27;1145;-50
2021/08/07 09:29:56;;;;;;;;;;;;;;;20.68;59.51;100283.91;5140334;27;1998;-58
2021/08/07 09:32:21;;;;;;;;;;;;;;;21.10;59.64;100277.34;5159580;27;840;-55
2021/08/07 09:35:06;;;;;;;;;;;;;;;21.88;58.40;100276.88;5136222;27;1092;-57
2021/08/07 09:37:31;;;;;;;;;;;;;;;21.43;61.06;100283.34;5127574;27;2313;-57
2021/08/07 09:39:58;;;;;;;;;;;;;;;21.31;62.72;100291.47;5140709;27;1267;-59
2021/08/07 09:42:28;;;;;;;;;;;;;;;21.10;61.93;100291.97;5140554;27;1321;-54
2021/08/07 09:45:08;;;;;;;;;;;;;;;20.83;57.20;100298.47;5140626;27;810;-59
2021/08/07 09:47:46;;;;;;;;;;;;;;;21.17;58.89;100297.88;5140653;27;1117;-50
2021/08/07 09:50:22;;;;;;;;;;;;;;;21.49;59.65;100293.16;5138140;27;1910;-57
2021/08/07 09:52:49;;;;;;;;;;;;;;;21.63;58.99;100295.84;5119935;27;1224;-58
2021/08/07 09:55:14;;;;;;;;;;;;;;;21.74;57.85;100299.16;5103150;27;1224;-48
2021/08/07 09:57:40;;;;;;;;;;;;;;;21.42;57.96;100298.34;5119590;27;1158;-48
2021/08/07 10:00:05;;;;;;;;;;;;;;;21.66;56.91;100313.78;5138067;27;1269;-59
2021/08/07 10:02:41;;;;;;;;;;;;;;;20.92;58.65;100306.84;5138382;27;668;-49
2021/08/07 10:05:08;;;;;;;;;;;;;;;20.77;59.20;100286.72;5126223;27;1183;-57
2021/08/07 10:07:35;;;;;;;;;;;;;;;20.43;58.99;100292.75;5140098;27;1253;-56
2021/08/07 10:10:22;;;;;;;;;;;;;;;20.40;59.91;100304.41;5140494;27;1984;-63
2021/08/07 10:12:52;;;;;;;;;;;;;;;20.62;59.38;100311.91;5140696;27;1101;-59
2021/08/07 10:15:27;;;;;;;;;;;;;;;20.87;58.33;100307.75;5124461;27;1254;-59
2021/08/07 10:17:53;;;;;;;;;;;;;;;21.00;57.95;100297.78;5123139;27;1137;-60
2021/08/07 10:20:19;;;;;;;;;;;;;;;20.85;58.63;100310.03;5122552;27;1152;-50
2021/08/07 10:22:44;;;;;;;;;;;;;;;20.79;58.80;100302.97;5140433;27;1371;-48
2021/08/07 10:25:10;;;;;;;;;;;;;;;20.39;58.24;100306.38;5136094;27;1196;-57
2021/08/07 10:27:36;;;;;;;;;;;;;;;20.40;59.22;100309.94;5119338;27;1153;-52
2021/08/07 10:30:04;;;;;;;;;;;;;;;20.84;59.73;100317.47;5119936;27;1976;-59
2021/08/07 10:32:32;;;;;;;;;;;;;;;21.79;59.20;100307.28;5136735;27;1281;-59
2021/08/07 10:34:58;;;;;;;;;;;;;;;21.52;61.76;100303.63;5122049;27;1140;-60
2021/08/07 10:37:26;;;;;;;;;;;;;;;21.52;63.14;100294.50;5123515;27;1165;-59
2021/08/07 10:39:52;;;;;;;;;;;;;;;21.61;60.99;100300.06;5140022;27;1381;-59
2021/08/07 10:42:19;;;;;;;;;;;;;;;21.36;56.91;100299.59;5139565;27;1180;-60
2021/08/07 10:44:45;;;;;;;;;;;;;;;21.23;56.68;100303.28;5140223;27;1456;-60
2021/08/07 10:47:11;;;;;;;;;;;;;;;21.34;59.89;100307.41;5140083;27;755;-51
2021/08/07 10:49:41;;;;;;;;;;;;;;;21.40;60.95;100306.13;5157610;27;1984;-59
2021/08/07 10:52:22;;;;;;;;;;;;;;;21.51;60.57;100301.13;5139977;27;1112;-59
2021/08/07 10:54:51;;;;;;;;;;;;;;;21.78;58.90;100293.78;5158254;27;790;-58
2021/08/07 10:57:36;;;;;;;;;;;;;;;21.83;57.92;100286.16;5158123;27;850;-59
2021/08/07 11:00:16;;;;;;;;;;;;;;;21.28;58.92;100289.31;5158328;27;867;-52
2021/08/07 11:02:42;;;;;;;;;;;;;;;20.85;59.94;100291.50;5157573;27;803;-47
2021/08/07 11:05:07;;;;;;;;;;;;;;;20.64;58.95;100301.38;5157907;27;1012;-59
2021/08/07 11:07:34;;;;;;;;;;;;;;;20.57;59.08;100295.50;5158009;27;1029;-47
2021/08/07 11:10:01;;;;;;;;;;;;;;;21.04;58.63;100296.00;5157599;27;1913;-55
2021/08/07 11:12:27;;;;;;;;;;;;;;;21.27;57.54;100296.78;5139286;27;735;-60
2021/08/07 11:14:53;;;;;;;;;;;;;;;21.22;57.32;100294.16;5158202;27;791;-58
2021/08/07 11:17:18;;;;;;;;;;;;;;;21.31;56.92;100294.22;5157532;27;762;-60
2021/08/07 11:20:07;;;;;;;;;;;;;;;21.14;57.29;100293.00;5157633;27;926;-59
2021/08/07 11:22:34;;;;;;;;;;;;;;;20.90;58.05;100296.09;5147068;27;1157;-59
2021/08/07 11:25:03;;;;;;;;;;;;;;;20.84;58.25;100284.31;5157354;27;1189;-51
2021/08/07 11:27:47;;;;;;;;;;;;;;;20.37;56.99;100286.53;5157986;27;762;-60
2021/08/07 11:30:18;;;;;;;;;;;;;;;20.92;58.33;100280.00;5157667;27;1972;-49
2021/08/07 11:33:00;;;;;;;;;;;;;;;21.39;57.93;100279.59;5139189;27;1282;-50
2021/08/07 11:35:38;;;;;;;;;;;;;;;21.90;58.43;100279.34;5148165;27;949;-58
2021/08/07 11:38:15;;;;;;;;;;;;;;;21.30;61.43;100287.84;5136625;28;835;-59
2021/08/07 11:40:50;;;;;;;;;;;;;;;21.41;61.51;100279.31;5137036;28;759;-59
2021/08/07 11:43:19;;;;;;;;;;;;;;;20.99;59.64;100290.63;5136752;28;796;-59
2021/08/07 11:46:04;;;;;;;;;;;;;;;20.78;57.84;100284.78;5137243;28;791;-46
2021/08/07 11:48:30;;;;;;;;;;;;;;;21.64;61.20;100288.34;5136170;28;1905;-46
2021/08/07 11:50:56;;;;;;;;;;;;;;;21.96;62.76;100278.84;5136243;27;957;-59
2021/08/07 11:53:22;;;;;;;;;;;;;;;22.33;62.15;100292.41;5145352;27;1154;-47
2021/08/07 11:56:03;;;;;;;;;;;;;;;21.55;64.64;100282.81;5161172;27;755;-61
2021/08/07 11:58:29;;;;;;;;;;;;;;;21.63;63.74;100282.03;5161315;27;1507;-61
2021/08/07 12:00:58;;;;;;;;;;;;;;;20.85;60.36;100274.91;5161479;27;738;-61
2021/08/07 12:03:23;;;;;;;;;;;;;;;20.67;58.72;100276.72;5161192;27;750;-62
2021/08/07 12:05:55;;;;;;;;;;;;;;;20.69;59.77;100276.41;5160576;27;1060;-56
2021/08/07 12:08:22;;;;;;;;;;;;;;;20.62;59.42;100278.78;5142971;27;1968;-55
2021/08/07 12:10:50;;;;;;;;;;;;;;;20.84;57.91;100278.78;5160766;27;806;-56
2021/08/07 12:13:22;;;;;;;;;;;;;;;21.08;58.44;100285.13;5160978;27;786;-47
2021/08/07 12:15:55;;;;;;;;;;;;;;;21.56;59.46;100284.44;5161146;27;849;-49
2021/08/07 12:18:20;;;;;;;;;;;;;;;21.22;62.14;100285.84;5160940;27;879;-53
2021/08/07 12:20:46;;;;;;;;;;;;;;;21.26;63.01;100289.63;5160474;27;957;-52
2021/08/07 12:23:11;;;;;;;;;;;;;;;21.07;61.31;100300.06;5160929;27;747;-46
2021/08/07 12:25:37;;;;;;;;;;;;;;;20.76;59.34;100298.91;5160385;27;1109;-45
2021/08/07 12:28:20;;;;;;;;;;;;;;;21.39;61.06;100304.47;5141604;27;1913;-50
2021/08/07 12:31:04;;;;;;;;;;;;;;;22.07;62.09;100307.06;5161088;27;739;-53
2021/08/07 12:33:30;;;;;;;;;;;;;;;22.36;62.24;100313.97;5160476;27;838;-50
2021/08/07 12:35:56;;;;;;;;;;;;;;;21.55;64.87;100307.69;5141365;27;973;-51
2021/08/07 12:38:22;;;;;;;;;;;;;;;21.69;63.83;100324.19;5160599;27;838;-52
2021/08/07 12:40:49;;;;;;;;;;;;;;;21.18;60.90;100312.50;5160313;27;819;-49
2021/08/07 12:43:14;;;;;;;;;;;;;;;20.73;56.85;100305.06;5160208;27;767;-52
2021/08/07 12:45:39;;;;;;;;;;;;;;;21.02;60.25;100312.09;5160463;27;747;-49
2021/08/07 12:48:05;;;;;;;;;;;;;;;21.19;61.12;100305.84;5141281;27;1917;-51
2021/08/07 12:50:30;;;;;;;;;;;;;;;21.32;60.64;100315.19;5160202;27;949;-51
2021/08/07 12:53:03;;;;;;;;;;;;;;;21.42;59.46;100320.47;5160367;27;818;-51
2021/08/07 12:55:28;;;;;;;;;;;;;;;21.15;58.54;100325.03;5159879;27;798;-55
2021/08/07 12:58:20;;;;;;;;;;;;;;;21.01;58.27;100315.97;5141850;27;1882;-47